sensor_id;sensor_type;location;lat;lon;timestamp;temperature;humidity
4934;DHT22;2482;49.154;8.254;2023-02-10T00:01:33;-2.20;99.90
4934;DHT22;2482;49.154;8.254;2023-02-10T00:04:01;-2.20;99.90
4934;DHT22;2482;49.154;8.254;2023-02-10T00:06:29;-2.30;99.90
4934;DHT22;2482;49.154;8.254;2023-02-10T00:08:59;-2.20;99.90
4934;DHT22;2482;49.154;8.254;2023-02-10T00:11:27;-1.80;99.90
4934;DHT22;2482;49.154;8.254;2023-02-10T00:14:15;-1.80;99.90
4934;DHT22;2482;49.154;8.254;2023-02-10T00:16:42;-2.00;99.90
4934;DHT22;2482;49.154;8.254;2023-02-10T00:19:10;-2.10;99.90
4934;DHT22;2482;49.154;8.254;2023-02-10T00:21:37;-1.90;99.90
4934;DHT22;2482;49.154;8.254;2023-02-10T00:24:04;-1.70;99.90
4934;DHT22;2482;49.154;8.254;2023-02-10T00:26:31;-1.60;99.90
4934;DHT22;2482;49.154;8.254;2023-02-10T00:28:58;-1.70;99.90
4934;DHT22;2482;49.154;8.254;2023-02-10T00:31:25;-1.70;99.90
4934;DHT22;2482;49.154;8.254;2023-02-10T00:33:52;-1.60;99.90
4934;DHT22;2482;49.154;8.254;2023-02-10T00:36:21;-1.60;99.90
4934;DHT22;2482;49.154;8.254;2023-02-10T00:38:50;-1.60;99.90
4934;DHT22;2482;49.154;8.254;2023-02-10T00:41:20;-1.70;99.90
4934;DHT22;2482;49.154;8.254;2023-02-10T00:43:48;-1.70;99.90
4934;DHT22;2482;49.154;8.254;2023-02-10T00:46:18;-1.70;99.90
4934;DHT22;2482;49.154;8.254;2023-02-10T00:48:46;-1.90;99.90
4934;DHT22;2482;49.154;8.254;2023-02-10T00:51:14;-1.90;99.90
4934;DHT22;2482;49.154;8.254;2023-02-10T00:53:42;-2.10;99.90
4934;DHT22;2482;49.154;8.254;2023-02-10T00:56:10;-2.00;99.90
4934;DHT22;2482;49.154;8.254;2023-02-10T00:58:37;-2.10;99.90
4934;DHT22;2482;49.154;8.254;2023-02-10T01:01:05;-2.10;99.90
4934;DHT22;2482;49.154;8.254;2023-02-10T01:03:33;-1.90;99.90
4934;DHT22;2482;49.154;8.254;2023-02-10T01:06:01;-1.70;99.90
4934;DHT22;2482;49.154;8.254;2023-02-10T01:08:30;-1.80;99.90
4934;DHT22;2482;49.154;8.254;2023-02-10T01:11:02;-1.60;99.90
4934;DHT22;2482;49.154;8.254;2023-02-10T01:13:34;-1.60;99.90
4934;DHT22;2482;49.154;8.254;2023-02-10T01:16:15;-1.70;99.90
4934;DHT22;2482;49.154;8.254;2023-02-10T01:18:43;-1.70;99.90
4934;DHT22;2482;49.154;8.254;2023-02-10T01:21:16;-1.80;99.90
4934;DHT22;2482;49.154;8.254;2023-02-10T01:23:47;-1.70;99.90
4934;DHT22;2482;49.154;8.254;2023-02-10T01:26:14;-1.90;99.90
4934;DHT22;2482;49.154;8.254;2023-02-10T01:28:42;-1.90;99.90
4934;DHT22;2482;49.154;8.254;2023-02-10T01:31:12;-1.80;99.90
4934;DHT22;2482;49.154;8.254;2023-02-10T01:33:45;-1.60;99.90
4934;DHT22;2482;49.154;8.254;2023-02-10T01:36:15;-1.80;99.90
4934;DHT22;2482;49.154;8.254;2023-02-10T01:38:44;-1.90;99.90
4934;DHT22;2482;49.154;8.254;2023-02-10T01:41:16;-2.00;99.90
4934;DHT22;2482;49.154;8.254;2023-02-10T01:44:00;-1.90;99.90
4934;DHT22;2482;49.154;8.254;2023-02-10T01:46:31;-1.70;99.90
4934;DHT22;2482;49.154;8.254;2023-02-10T01:49:03;-1.70;99.90
4934;DHT22;2482;49.154;8.254;2023-02-10T01:54:39;-1.80;99.90
4934;DHT22;2482;49.154;8.254;2023-02-10T01:57:09;-1.80;99.90
4934;DHT22;2482;49.154;8.254;2023-02-10T01:59:38;-1.90;99.90
4934;DHT22;2482;49.154;8.254;2023-02-10T02:02:07;-1.90;99.90
4934;DHT22;2482;49.154;8.254;2023-02-10T02:05:17;-1.90;99.90
4934;DHT22;2482;49.154;8.254;2023-02-10T02:07:45;-2.00;99.90
4934;DHT22;2482;49.154;8.254;2023-02-10T02:10:12;-2.10;99.90
4934;DHT22;2482;49.154;8.254;2023-02-10T02:13:01;-2.10;99.90
4934;DHT22;2482;49.154;8.254;2023-02-10T02:15:55;-2.20;99.90
4934;DHT22;2482;49.154;8.254;2023-02-10T02:18:40;-2.20;99.90
4934;DHT22;2482;49.154;8.254;2023-02-10T02:30:58;-2.00;99.90
4934;DHT22;2482;49.154;8.254;2023-02-10T02:33:55;-2.00;99.90
4934;DHT22;2482;49.154;8.254;2023-02-10T02:36:31;-2.10;99.90
4934;DHT22;2482;49.154;8.254;2023-02-10T02:39:03;-2.10;99.90
4934;DHT22;2482;49.154;8.254;2023-02-10T02:41:34;-2.10;99.90
4934;DHT22;2482;49.154;8.254;2023-02-10T02:44:03;-2.10;99.90
4934;DHT22;2482;49.154;8.254;2023-02-10T02:46:56;-2.20;99.90
4934;DHT22;2482;49.154;8.254;2023-02-10T02:55:19;-1.90;99.90
4934;DHT22;2482;49.154;8.254;2023-02-10T02:57:57;-1.90;99.90
4934;DHT22;2482;49.154;8.254;2023-02-10T03:00:32;-1.90;99.90
4934;DHT22;2482;49.154;8.254;2023-02-10T03:03:02;-1.90;99.90
4934;DHT22;2482;49.154;8.254;2023-02-10T03:05:32;-2.00;99.90
4934;DHT22;2482;49.154;8.254;2023-02-10T03:07:59;-2.00;99.90
4934;DHT22;2482;49.154;8.254;2023-02-10T03:10:26;-2.00;99.90
4934;DHT22;2482;49.154;8.254;2023-02-10T03:12:53;-1.90;99.90
4934;DHT22;2482;49.154;8.254;2023-02-10T03:15:21;-2.00;99.90
4934;DHT22;2482;49.154;8.254;2023-02-10T03:17:47;-2.10;99.90
4934;DHT22;2482;49.154;8.254;2023-02-10T03:20:15;-2.20;99.90
4934;DHT22;2482;49.154;8.254;2023-02-10T03:22:43;-2.30;99.90
4934;DHT22;2482;49.154;8.254;2023-02-10T03:25:10;-2.00;99.90
4934;DHT22;2482;49.154;8.254;2023-02-10T03:27:37;-2.00;99.90
4934;DHT22;2482;49.154;8.254;2023-02-10T03:30:06;-2.10;99.90
4934;DHT22;2482;49.154;8.254;2023-02-10T03:32:33;-2.10;99.90
4934;DHT22;2482;49.154;8.254;2023-02-10T03:35:00;-2.30;99.90
4934;DHT22;2482;49.154;8.254;2023-02-10T03:37:27;-2.30;99.90
4934;DHT22;2482;49.154;8.254;2023-02-10T03:39:55;-2.40;99.90
4934;DHT22;2482;49.154;8.254;2023-02-10T03:42:22;-2.50;99.90
4934;DHT22;2482;49.154;8.254;2023-02-10T03:44:49;-2.50;99.90
4934;DHT22;2482;49.154;8.254;2023-02-10T03:47:16;-2.50;99.90
4934;DHT22;2482;49.154;8.254;2023-02-10T03:49:43;-2.40;99.90
4934;DHT22;2482;49.154;8.254;2023-02-10T03:52:10;-2.60;99.90
4934;DHT22;2482;49.154;8.254;2023-02-10T03:54:38;-2.60;99.90
4934;DHT22;2482;49.154;8.254;2023-02-10T03:57:05;-2.60;99.90
4934;DHT22;2482;49.154;8.254;2023-02-10T03:59:32;-2.60;99.90
4934;DHT22;2482;49.154;8.254;2023-02-10T04:02:05;-2.60;99.90
4934;DHT22;2482;49.154;8.254;2023-02-10T04:04:32;-2.70;99.90
4934;DHT22;2482;49.154;8.254;2023-02-10T04:07:01;-2.30;99.90
4934;DHT22;2482;49.154;8.254;2023-02-10T04:09:30;-2.30;99.90
4934;DHT22;2482;49.154;8.254;2023-02-10T04:11:57;-2.20;99.90
4934;DHT22;2482;49.154;8.254;2023-02-10T04:14:23;-2.10;99.90
4934;DHT22;2482;49.154;8.254;2023-02-10T04:16:50;-2.10;99.90
4934;DHT22;2482;49.154;8.254;2023-02-10T04:19:17;-2.30;99.90
4934;DHT22;2482;49.154;8.254;2023-02-10T04:21:44;-2.40;99.90
4934;DHT22;2482;49.154;8.254;2023-02-10T04:24:11;-2.40;99.90
4934;DHT22;2482;49.154;8.254;2023-02-10T04:26:40;-2.70;99.90
4934;DHT22;2482;49.154;8.254;2023-02-10T04:29:08;-2.70;99.90
4934;DHT22;2482;49.154;8.254;2023-02-10T04:31:35;-2.80;99.90
4934;DHT22;2482;49.154;8.254;2023-02-10T04:34:02;-2.80;99.90
4934;DHT22;2482;49.154;8.254;2023-02-10T04:36:29;-2.40;99.90
4934;DHT22;2482;49.154;8.254;2023-02-10T04:38:56;-2.40;99.90
4934;DHT22;2482;49.154;8.254;2023-02-10T04:41:23;-2.60;99.90
4934;DHT22;2482;49.154;8.254;2023-02-10T04:43:50;-2.80;99.90
4934;DHT22;2482;49.154;8.254;2023-02-10T04:46:18;-2.90;99.90
4934;DHT22;2482;49.154;8.254;2023-02-10T04:48:45;-3.10;99.90
4934;DHT22;2482;49.154;8.254;2023-02-10T04:51:13;-3.10;99.90
4934;DHT22;2482;49.154;8.254;2023-02-10T04:53:45;-3.10;99.90
4934;DHT22;2482;49.154;8.254;2023-02-10T04:56:14;-3.10;99.90
4934;DHT22;2482;49.154;8.254;2023-02-10T04:58:42;-3.10;99.90
4934;DHT22;2482;49.154;8.254;2023-02-10T05:01:09;-3.10;99.90
4934;DHT22;2482;49.154;8.254;2023-02-10T05:03:36;-3.00;99.90
4934;DHT22;2482;49.154;8.254;2023-02-10T05:06:08;-3.00;99.90
4934;DHT22;2482;49.154;8.254;2023-02-10T05:08:37;-3.00;99.90
4934;DHT22;2482;49.154;8.254;2023-02-10T05:11:11;-2.90;99.90
4934;DHT22;2482;49.154;8.254;2023-02-10T05:13:39;-3.00;99.90
4934;DHT22;2482;49.154;8.254;2023-02-10T05:16:08;-3.00;99.90
4934;DHT22;2482;49.154;8.254;2023-02-10T05:18:38;-3.10;99.90
4934;DHT22;2482;49.154;8.254;2023-02-10T05:21:10;-3.20;99.90
4934;DHT22;2482;49.154;8.254;2023-02-10T05:23:39;-3.10;99.90
4934;DHT22;2482;49.154;8.254;2023-02-10T05:26:07;-3.10;99.90
4934;DHT22;2482;49.154;8.254;2023-02-10T05:28:34;-3.10;99.90
4934;DHT22;2482;49.154;8.254;2023-02-10T05:31:01;-3.20;99.90
4934;DHT22;2482;49.154;8.254;2023-02-10T05:33:31;-3.30;99.90
4934;DHT22;2482;49.154;8.254;2023-02-10T05:35:59;-3.20;99.90
4934;DHT22;2482;49.154;8.254;2023-02-10T05:38:27;-3.30;99.90
4934;DHT22;2482;49.154;8.254;2023-02-10T05:40:54;-3.20;99.90
4934;DHT22;2482;49.154;8.254;2023-02-10T05:43:21;-3.10;99.90
4934;DHT22;2482;49.154;8.254;2023-02-10T05:45:48;-3.10;99.90
4934;DHT22;2482;49.154;8.254;2023-02-10T05:48:16;-3.30;99.90
4934;DHT22;2482;49.154;8.254;2023-02-10T05:50:42;-3.40;99.90
4934;DHT22;2482;49.154;8.254;2023-02-10T05:53:09;-3.40;99.90
4934;DHT22;2482;49.154;8.254;2023-02-10T05:55:36;-3.50;99.90
4934;DHT22;2482;49.154;8.254;2023-02-10T05:58:04;-3.50;99.90
4934;DHT22;2482;49.154;8.254;2023-02-10T06:00:31;-3.40;99.90
4934;DHT22;2482;49.154;8.254;2023-02-10T06:02:58;-3.30;99.90
4934;DHT22;2482;49.154;8.254;2023-02-10T06:05:25;-3.40;99.90
4934;DHT22;2482;49.154;8.254;2023-02-10T06:07:52;-3.40;99.90
4934;DHT22;2482;49.154;8.254;2023-02-10T06:10:21;-3.30;99.90
4934;DHT22;2482;49.154;8.254;2023-02-10T06:12:49;-3.20;99.90
4934;DHT22;2482;49.154;8.254;2023-02-10T06:15:16;-3.20;99.90
4934;DHT22;2482;49.154;8.254;2023-02-10T06:17:43;-3.20;99.90
4934;DHT22;2482;49.154;8.254;2023-02-10T06:20:10;-3.20;99.90
4934;DHT22;2482;49.154;8.254;2023-02-10T06:22:37;-3.10;99.90
4934;DHT22;2482;49.154;8.254;2023-02-10T06:25:09;-3.10;99.90
4934;DHT22;2482;49.154;8.254;2023-02-10T06:27:37;-3.20;99.90
4934;DHT22;2482;49.154;8.254;2023-02-10T06:30:09;-3.20;99.90
4934;DHT22;2482;49.154;8.254;2023-02-10T06:32:38;-3.20;99.90
4934;DHT22;2482;49.154;8.254;2023-02-10T06:35:05;-3.20;99.90
4934;DHT22;2482;49.154;8.254;2023-02-10T06:37:32;-3.20;99.90
4934;DHT22;2482;49.154;8.254;2023-02-10T06:39:59;-3.20;99.90
4934;DHT22;2482;49.154;8.254;2023-02-10T06:42:26;-3.30;99.90
4934;DHT22;2482;49.154;8.254;2023-02-10T06:44:53;-3.30;99.90
4934;DHT22;2482;49.154;8.254;2023-02-10T06:47:20;-3.30;99.90
4934;DHT22;2482;49.154;8.254;2023-02-10T06:49:47;-3.30;99.90
4934;DHT22;2482;49.154;8.254;2023-02-10T06:52:15;-3.10;99.90
4934;DHT22;2482;49.154;8.254;2023-02-10T06:54:43;-3.10;99.90
4934;DHT22;2482;49.154;8.254;2023-02-10T06:57:14;-3.10;99.90
4934;DHT22;2482;49.154;8.254;2023-02-10T06:59:41;-3.20;99.90
4934;DHT22;2482;49.154;8.254;2023-02-10T07:02:10;-3.30;99.90
4934;DHT22;2482;49.154;8.254;2023-02-10T07:04:39;-3.30;99.90
4934;DHT22;2482;49.154;8.254;2023-02-10T07:07:06;-3.20;99.90
4934;DHT22;2482;49.154;8.254;2023-02-10T07:09:33;-3.20;99.90
4934;DHT22;2482;49.154;8.254;2023-02-10T07:12:03;-3.10;99.90
4934;DHT22;2482;49.154;8.254;2023-02-10T07:14:32;-3.20;99.90
4934;DHT22;2482;49.154;8.254;2023-02-10T07:17:00;-3.10;99.90
4934;DHT22;2482;49.154;8.254;2023-02-10T07:19:27;-3.20;99.90
4934;DHT22;2482;49.154;8.254;2023-02-10T07:21:54;-3.30;99.90
4934;DHT22;2482;49.154;8.254;2023-02-10T07:24:21;-3.20;99.90
4934;DHT22;2482;49.154;8.254;2023-02-10T07:26:49;-3.20;99.90
4934;DHT22;2482;49.154;8.254;2023-02-10T07:29:16;-3.10;99.90
4934;DHT22;2482;49.154;8.254;2023-02-10T07:31:43;-3.00;99.90
4934;DHT22;2482;49.154;8.254;2023-02-10T07:34:10;-3.00;99.90
4934;DHT22;2482;49.154;8.254;2023-02-10T07:36:38;-3.00;99.90
4934;DHT22;2482;49.154;8.254;2023-02-10T07:39:04;-3.00;99.90
4934;DHT22;2482;49.154;8.254;2023-02-10T07:41:33;-2.80;99.90
4934;DHT22;2482;49.154;8.254;2023-02-10T07:44:00;-2.80;99.90
4934;DHT22;2482;49.154;8.254;2023-02-10T07:46:27;-2.90;99.90
4934;DHT22;2482;49.154;8.254;2023-02-10T07:48:54;-2.80;99.90
4934;DHT22;2482;49.154;8.254;2023-02-10T07:51:21;-2.70;99.90
4934;DHT22;2482;49.154;8.254;2023-02-10T07:53:48;-2.50;99.90
4934;DHT22;2482;49.154;8.254;2023-02-10T07:56:15;-2.40;99.90
4934;DHT22;2482;49.154;8.254;2023-02-10T07:58:42;-2.20;99.90
4934;DHT22;2482;49.154;8.254;2023-02-10T08:01:10;-2.20;99.90
4934;DHT22;2482;49.154;8.254;2023-02-10T08:03:38;-2.20;99.90
4934;DHT22;2482;49.154;8.254;2023-02-10T08:06:05;-2.10;99.90
4934;DHT22;2482;49.154;8.254;2023-02-10T08:08:33;-2.00;99.90
4934;DHT22;2482;49.154;8.254;2023-02-10T08:11:04;-2.10;99.90
4934;DHT22;2482;49.154;8.254;2023-02-10T08:13:32;-1.90;99.90
4934;DHT22;2482;49.154;8.254;2023-02-10T08:16:03;-1.80;99.90
4934;DHT22;2482;49.154;8.254;2023-02-10T08:18:31;-1.80;99.90
4934;DHT22;2482;49.154;8.254;2023-02-10T08:20:59;-1.70;99.90
4934;DHT22;2482;49.154;8.254;2023-02-10T08:23:27;-1.50;99.90
4934;DHT22;2482;49.154;8.254;2023-02-10T08:25:55;-1.30;99.90
4934;DHT22;2482;49.154;8.254;2023-02-10T08:28:24;-1.30;99.90
4934;DHT22;2482;49.154;8.254;2023-02-10T08:30:51;-1.10;99.90
4934;DHT22;2482;49.154;8.254;2023-02-10T08:33:19;-1.00;99.90
4934;DHT22;2482;49.154;8.254;2023-02-10T08:35:46;-0.90;99.90
4934;DHT22;2482;49.154;8.254;2023-02-10T08:38:14;-0.90;99.90
4934;DHT22;2482;49.154;8.254;2023-02-10T08:40:41;-0.90;99.90
4934;DHT22;2482;49.154;8.254;2023-02-10T08:43:08;-0.80;99.90
4934;DHT22;2482;49.154;8.254;2023-02-10T08:45:39;-0.60;99.90
4934;DHT22;2482;49.154;8.254;2023-02-10T08:48:07;-0.40;99.90
4934;DHT22;2482;49.154;8.254;2023-02-10T08:50:33;-0.30;99.90
4934;DHT22;2482;49.154;8.254;2023-02-10T08:53:01;-0.30;99.90
4934;DHT22;2482;49.154;8.254;2023-02-10T08:55:28;-0.20;99.90
4934;DHT22;2482;49.154;8.254;2023-02-10T08:57:55;0.00;99.90
4934;DHT22;2482;49.154;8.254;2023-02-10T09:00:22;0.00;99.90
4934;DHT22;2482;49.154;8.254;2023-02-10T09:02:50;0.00;99.90
4934;DHT22;2482;49.154;8.254;2023-02-10T09:05:17;0.10;99.90
4934;DHT22;2482;49.154;8.254;2023-02-10T09:07:45;0.20;99.90
4934;DHT22;2482;49.154;8.254;2023-02-10T09:10:14;0.30;99.90
4934;DHT22;2482;49.154;8.254;2023-02-10T09:12:42;0.40;99.90
4934;DHT22;2482;49.154;8.254;2023-02-10T09:15:09;0.50;99.90
4934;DHT22;2482;49.154;8.254;2023-02-10T09:17:36;0.60;99.90
4934;DHT22;2482;49.154;8.254;2023-02-10T09:20:04;0.80;99.90
4934;DHT22;2482;49.154;8.254;2023-02-10T09:22:32;1.00;99.90
4934;DHT22;2482;49.154;8.254;2023-02-10T09:24:59;1.20;99.90
4934;DHT22;2482;49.154;8.254;2023-02-10T09:27:27;1.30;99.90
4934;DHT22;2482;49.154;8.254;2023-02-10T09:29:54;1.40;99.90
4934;DHT22;2482;49.154;8.254;2023-02-10T09:32:21;1.40;99.90
4934;DHT22;2482;49.154;8.254;2023-02-10T09:34:48;1.50;99.90
4934;DHT22;2482;49.154;8.254;2023-02-10T09:37:15;1.50;99.90
4934;DHT22;2482;49.154;8.254;2023-02-10T09:39:42;1.60;99.90
4934;DHT22;2482;49.154;8.254;2023-02-10T09:43:01;1.70;99.90
4934;DHT22;2482;49.154;8.254;2023-02-10T09:45:25;1.90;99.90
4934;DHT22;2482;49.154;8.254;2023-02-10T09:51:38;2.20;99.90
4934;DHT22;2482;49.154;8.254;2023-02-10T09:54:15;2.40;99.90
4934;DHT22;2482;49.154;8.254;2023-02-10T09:56:43;2.50;99.90
4934;DHT22;2482;49.154;8.254;2023-02-10T09:59:14;2.50;99.90
4934;DHT22;2482;49.154;8.254;2023-02-10T10:01:53;2.70;99.90
4934;DHT22;2482;49.154;8.254;2023-02-10T10:04:23;2.70;99.90
4934;DHT22;2482;49.154;8.254;2023-02-10T10:06:56;2.80;99.90
4934;DHT22;2482;49.154;8.254;2023-02-10T10:09:49;2.90;99.90
4934;DHT22;2482;49.154;8.254;2023-02-10T10:12:23;2.90;99.90
4934;DHT22;2482;49.154;8.254;2023-02-10T10:14:50;2.80;99.90
4934;DHT22;2482;49.154;8.254;2023-02-10T10:17:46;2.90;99.90
4934;DHT22;2482;49.154;8.254;2023-02-10T10:27:00;3.50;99.90
4934;DHT22;2482;49.154;8.254;2023-02-10T10:29:55;3.50;99.90
4934;DHT22;2482;49.154;8.254;2023-02-10T10:32:41;3.60;99.90
4934;DHT22;2482;49.154;8.254;2023-02-10T10:35:50;3.80;99.90
4934;DHT22;2482;49.154;8.254;2023-02-10T10:38:20;3.90;99.90
4934;DHT22;2482;49.154;8.254;2023-02-10T10:40:52;4.00;99.90
4934;DHT22;2482;49.154;8.254;2023-02-10T10:43:26;4.10;99.90
4934;DHT22;2482;49.154;8.254;2023-02-10T10:46:34;4.30;99.90
4934;DHT22;2482;49.154;8.254;2023-02-10T10:49:02;4.20;99.90
4934;DHT22;2482;49.154;8.254;2023-02-10T10:51:29;4.40;99.90
4934;DHT22;2482;49.154;8.254;2023-02-10T10:53:58;4.30;99.90
4934;DHT22;2482;49.154;8.254;2023-02-10T10:56:40;4.40;99.90
4934;DHT22;2482;49.154;8.254;2023-02-10T10:59:14;4.50;99.90
4934;DHT22;2482;49.154;8.254;2023-02-10T11:01:45;4.30;99.90
4934;DHT22;2482;49.154;8.254;2023-02-10T11:04:19;4.40;99.90
4934;DHT22;2482;49.154;8.254;2023-02-10T11:06:55;4.50;99.90
4934;DHT22;2482;49.154;8.254;2023-02-10T11:09:34;4.70;99.90
4934;DHT22;2482;49.154;8.254;2023-02-10T11:12:18;4.90;99.90
4934;DHT22;2482;49.154;8.254;2023-02-10T11:15:00;5.20;99.90
4934;DHT22;2482;49.154;8.254;2023-02-10T11:17:35;5.20;99.90
4934;DHT22;2482;49.154;8.254;2023-02-10T11:22:42;5.40;99.90
4934;DHT22;2482;49.154;8.254;2023-02-10T11:25:30;5.40;99.90
4934;DHT22;2482;49.154;8.254;2023-02-10T11:28:04;5.50;99.90
4934;DHT22;2482;49.154;8.254;2023-02-10T11:30:37;5.50;99.90
4934;DHT22;2482;49.154;8.254;2023-02-10T11:33:15;5.50;99.90
4934;DHT22;2482;49.154;8.254;2023-02-10T11:35:49;5.60;99.90
4934;DHT22;2482;49.154;8.254;2023-02-10T11:38:21;5.60;99.90
4934;DHT22;2482;49.154;8.254;2023-02-10T11:40:57;5.60;99.90
4934;DHT22;2482;49.154;8.254;2023-02-10T11:43:30;5.50;99.90
4934;DHT22;2482;49.154;8.254;2023-02-10T11:46:01;5.60;99.90
4934;DHT22;2482;49.154;8.254;2023-02-10T11:48:30;5.60;99.90
4934;DHT22;2482;49.154;8.254;2023-02-10T11:51:12;5.80;99.90
4934;DHT22;2482;49.154;8.254;2023-02-10T11:53:43;5.90;99.90
4934;DHT22;2482;49.154;8.254;2023-02-10T11:56:20;6.00;99.90
4934;DHT22;2482;49.154;8.254;2023-02-10T12:04:15;6.30;99.90
4934;DHT22;2482;49.154;8.254;2023-02-10T12:07:10;6.50;99.90
4934;DHT22;2482;49.154;8.254;2023-02-10T12:16:51;6.50;99.90
4934;DHT22;2482;49.154;8.254;2023-02-10T12:25:37;7.00;99.90
4934;DHT22;2482;49.154;8.254;2023-02-10T12:30:51;6.80;99.90
4934;DHT22;2482;49.154;8.254;2023-02-10T12:39:15;7.20;99.90
4934;DHT22;2482;49.154;8.254;2023-02-10T12:50:33;7.20;99.90
4934;DHT22;2482;49.154;8.254;2023-02-10T12:53:24;7.10;99.90
4934;DHT22;2482;49.154;8.254;2023-02-10T12:56:01;7.20;99.90
4934;DHT22;2482;49.154;8.254;2023-02-10T12:58:36;7.30;99.90
4934;DHT22;2482;49.154;8.254;2023-02-10T13:01:22;7.30;99.90
4934;DHT22;2482;49.154;8.254;2023-02-10T13:03:59;7.30;99.90
4934;DHT22;2482;49.154;8.254;2023-02-10T13:06:59;7.50;99.90
4934;DHT22;2482;49.154;8.254;2023-02-10T13:09:43;7.60;99.90
4934;DHT22;2482;49.154;8.254;2023-02-10T13:12:33;7.40;99.90
4934;DHT22;2482;49.154;8.254;2023-02-10T13:15:27;7.50;99.90
4934;DHT22;2482;49.154;8.254;2023-02-10T13:17:58;7.50;99.90
4934;DHT22;2482;49.154;8.254;2023-02-10T13:24:21;7.80;99.90
4934;DHT22;2482;49.154;8.254;2023-02-10T13:29:47;7.60;99.90
4934;DHT22;2482;49.154;8.254;2023-02-10T13:35:11;7.40;99.90
4934;DHT22;2482;49.154;8.254;2023-02-10T13:37:55;7.50;99.90
4934;DHT22;2482;49.154;8.254;2023-02-10T13:40:28;7.50;99.90
4934;DHT22;2482;49.154;8.254;2023-02-10T13:43:03;7.60;99.90
4934;DHT22;2482;49.154;8.254;2023-02-10T13:45:33;7.80;99.90
4934;DHT22;2482;49.154;8.254;2023-02-10T13:48:06;7.80;99.90
4934;DHT22;2482;49.154;8.254;2023-02-10T13:50:51;7.70;99.90
4934;DHT22;2482;49.154;8.254;2023-02-10T13:59:00;7.70;99.90
4934;DHT22;2482;49.154;8.254;2023-02-10T14:01:33;7.50;99.90
4934;DHT22;2482;49.154;8.254;2023-02-10T14:04:02;7.40;99.90
4934;DHT22;2482;49.154;8.254;2023-02-10T14:06:51;7.40;99.90
4934;DHT22;2482;49.154;8.254;2023-02-10T14:09:32;7.40;99.90
4934;DHT22;2482;49.154;8.254;2023-02-10T14:12:03;7.30;99.90
4934;DHT22;2482;49.154;8.254;2023-02-10T14:14:45;7.30;99.90
4934;DHT22;2482;49.154;8.254;2023-02-10T14:19:46;7.50;99.90
4934;DHT22;2482;49.154;8.254;2023-02-10T14:22:35;7.50;99.90
4934;DHT22;2482;49.154;8.254;2023-02-10T14:27:59;7.50;99.90
4934;DHT22;2482;49.154;8.254;2023-02-10T14:30:39;7.40;99.90
4934;DHT22;2482;49.154;8.254;2023-02-10T14:33:29;7.40;99.90
4934;DHT22;2482;49.154;8.254;2023-02-10T14:36:03;7.40;99.90
4934;DHT22;2482;49.154;8.254;2023-02-10T14:38:33;7.50;99.90
4934;DHT22;2482;49.154;8.254;2023-02-10T14:41:03;7.50;99.90
4934;DHT22;2482;49.154;8.254;2023-02-10T14:43:46;7.50;99.90
4934;DHT22;2482;49.154;8.254;2023-02-10T14:46:27;7.30;99.90
4934;DHT22;2482;49.154;8.254;2023-02-10T14:49:08;7.30;99.90
4934;DHT22;2482;49.154;8.254;2023-02-10T14:51:44;7.30;99.90
4934;DHT22;2482;49.154;8.254;2023-02-10T14:54:24;7.30;99.90
4934;DHT22;2482;49.154;8.254;2023-02-10T14:56:59;7.10;99.90
4934;DHT22;2482;49.154;8.254;2023-02-10T14:59:30;7.30;99.90
4934;DHT22;2482;49.154;8.254;2023-02-10T15:01:59;7.40;99.90
4934;DHT22;2482;49.154;8.254;2023-02-10T15:04:43;7.20;99.90
4934;DHT22;2482;49.154;8.254;2023-02-10T15:07:17;7.00;99.90
4934;DHT22;2482;49.154;8.254;2023-02-10T15:09:48;7.20;99.90
4934;DHT22;2482;49.154;8.254;2023-02-10T15:12:16;7.10;99.90
4934;DHT22;2482;49.154;8.254;2023-02-10T15:15:05;7.10;99.90
4934;DHT22;2482;49.154;8.254;2023-02-10T15:17:43;7.30;99.90
4934;DHT22;2482;49.154;8.254;2023-02-10T15:33:57;6.80;99.90
4934;DHT22;2482;49.154;8.254;2023-02-10T15:36:31;6.90;99.90
4934;DHT22;2482;49.154;8.254;2023-02-10T15:39:05;6.60;99.90
4934;DHT22;2482;49.154;8.254;2023-02-10T15:46:53;7.00;99.90
4934;DHT22;2482;49.154;8.254;2023-02-10T15:49:48;6.90;99.90
4934;DHT22;2482;49.154;8.254;2023-02-10T15:52:28;6.90;99.90
4934;DHT22;2482;49.154;8.254;2023-02-10T15:55:03;6.70;99.90
4934;DHT22;2482;49.154;8.254;2023-02-10T15:57:32;6.80;99.90
4934;DHT22;2482;49.154;8.254;2023-02-10T15:59:59;6.70;99.90
4934;DHT22;2482;49.154;8.254;2023-02-10T16:02:26;6.60;99.90
4934;DHT22;2482;49.154;8.254;2023-02-10T16:04:54;6.50;99.90
4934;DHT22;2482;49.154;8.254;2023-02-10T16:07:23;6.40;99.90
4934;DHT22;2482;49.154;8.254;2023-02-10T16:09:54;6.40;99.90
4934;DHT22;2482;49.154;8.254;2023-02-10T16:12:22;6.30;99.90
4934;DHT22;2482;49.154;8.254;2023-02-10T16:14:49;6.20;99.90
4934;DHT22;2482;49.154;8.254;2023-02-10T16:17:21;6.20;99.90
4934;DHT22;2482;49.154;8.254;2023-02-10T16:19:53;5.80;99.90
4934;DHT22;2482;49.154;8.254;2023-02-10T16:22:20;5.60;99.90
4934;DHT22;2482;49.154;8.254;2023-02-10T16:24:47;5.40;99.90
4934;DHT22;2482;49.154;8.254;2023-02-10T16:27:15;5.40;99.90
4934;DHT22;2482;49.154;8.254;2023-02-10T16:29:42;5.00;99.90
4934;DHT22;2482;49.154;8.254;2023-02-10T16:32:10;5.00;99.90
4934;DHT22;2482;49.154;8.254;2023-02-10T16:34:38;5.00;99.90
4934;DHT22;2482;49.154;8.254;2023-02-10T16:37:05;5.00;99.90
4934;DHT22;2482;49.154;8.254;2023-02-10T16:39:32;5.10;99.90
4934;DHT22;2482;49.154;8.254;2023-02-10T16:41:59;4.90;99.90
4934;DHT22;2482;49.154;8.254;2023-02-10T16:44:26;4.90;99.90
4934;DHT22;2482;49.154;8.254;2023-02-10T16:46:54;5.00;99.90
4934;DHT22;2482;49.154;8.254;2023-02-10T16:49:21;4.70;99.90
4934;DHT22;2482;49.154;8.254;2023-02-10T16:51:47;4.80;99.90
4934;DHT22;2482;49.154;8.254;2023-02-10T16:54:15;4.70;99.90
4934;DHT22;2482;49.154;8.254;2023-02-10T16:56:43;4.70;99.90
4934;DHT22;2482;49.154;8.254;2023-02-10T16:59:16;4.50;99.90
4934;DHT22;2482;49.154;8.254;2023-02-10T17:01:44;4.40;99.90
4934;DHT22;2482;49.154;8.254;2023-02-10T17:04:12;4.60;99.90
4934;DHT22;2482;49.154;8.254;2023-02-10T17:06:45;4.40;99.90
4934;DHT22;2482;49.154;8.254;2023-02-10T17:09:25;4.50;99.90
4934;DHT22;2482;49.154;8.254;2023-02-10T17:11:52;4.40;99.90
4934;DHT22;2482;49.154;8.254;2023-02-10T17:14:19;4.40;99.90
4934;DHT22;2482;49.154;8.254;2023-02-10T17:16:50;4.30;99.90
4934;DHT22;2482;49.154;8.254;2023-02-10T17:19:21;4.20;99.90
4934;DHT22;2482;49.154;8.254;2023-02-10T17:21:50;4.30;99.90
4934;DHT22;2482;49.154;8.254;2023-02-10T17:24:17;4.40;99.90
4934;DHT22;2482;49.154;8.254;2023-02-10T17:26:44;4.20;99.90
4934;DHT22;2482;49.154;8.254;2023-02-10T17:29:15;4.20;99.90
4934;DHT22;2482;49.154;8.254;2023-02-10T17:31:43;4.30;99.90
4934;DHT22;2482;49.154;8.254;2023-02-10T17:34:11;4.30;99.90
4934;DHT22;2482;49.154;8.254;2023-02-10T17:36:39;4.10;99.90
4934;DHT22;2482;49.154;8.254;2023-02-10T17:39:14;4.00;99.90
4934;DHT22;2482;49.154;8.254;2023-02-10T17:41:53;4.10;99.90
4934;DHT22;2482;49.154;8.254;2023-02-10T17:44:20;4.30;99.90
4934;DHT22;2482;49.154;8.254;2023-02-10T17:46:47;4.10;99.90
4934;DHT22;2482;49.154;8.254;2023-02-10T17:49:23;4.00;99.90
4934;DHT22;2482;49.154;8.254;2023-02-10T17:51:52;4.00;99.90
4934;DHT22;2482;49.154;8.254;2023-02-10T17:54:20;3.80;99.90
4934;DHT22;2482;49.154;8.254;2023-02-10T17:56:47;4.00;99.90
4934;DHT22;2482;49.154;8.254;2023-02-10T17:59:14;3.80;99.90
4934;DHT22;2482;49.154;8.254;2023-02-10T18:01:42;3.50;99.90
4934;DHT22;2482;49.154;8.254;2023-02-10T18:04:13;3.80;99.90
4934;DHT22;2482;49.154;8.254;2023-02-10T18:06:42;3.70;99.90
4934;DHT22;2482;49.154;8.254;2023-02-10T18:09:10;3.60;99.90
4934;DHT22;2482;49.154;8.254;2023-02-10T18:11:38;3.70;99.90
4934;DHT22;2482;49.154;8.254;2023-02-10T18:14:05;3.60;99.90
4934;DHT22;2482;49.154;8.254;2023-02-10T18:16:32;3.60;99.90
4934;DHT22;2482;49.154;8.254;2023-02-10T18:18:59;3.50;99.90
4934;DHT22;2482;49.154;8.254;2023-02-10T18:21:26;3.30;99.90
4934;DHT22;2482;49.154;8.254;2023-02-10T18:23:53;3.40;99.90